Atlantida Azul — CSYG2 — position and weather

sailwx.info

Track history (hours):
 
Tides and Currents Weather Stations Pressure Air Temp Water Temp Dewpoint Dewpoint Depression Visibility Wind Speed Wind Dir Waves Ship Positions

Atlantida Azul

Last reported at 2014-Sep-14 22:15 UTC. Time now 2014-Sep-15 04:01 UTC.
Position N 37°56' W 008°51'.

Length 16 m.

Type: Pilot. MMSI: 263672880.

Date/timePositionNaut miles runAvg speedWind from/ knotsBaromVisibWave heightAir tempDewpointWater temp
2014-Sep-14 22:15N 37°56' W 008°51'0 0.0
2014-Sep-14 17:33N 37°56' W 008°51'1 0.1
2014-Sep-14 05:27N 37°56' W 008°52'1 0.1
2014-Sep-13 18:24N 37°56' W 008°51'0 0.5
2014-Sep-13 17:34N 37°56' W 008°51'0 0.4
2014-Sep-13 16:29N 37°56' W 008°51'0 0.0
2014-Sep-13 15:32N 37°56' W 008°51'1 1.4
2014-Sep-13 14:32N 37°56' W 008°53'2 0.3
2014-Sep-13 08:33N 37°56' W 008°51'2 2.4
2014-Sep-13 07:33N 37°55' W 008°54'2 0.4
2014-Sep-13 02:18N 37°57' W 008°52'1 1.7
2014-Sep-13 01:32N 37°57' W 008°53'1 0.6
2014-Sep-12 23:19N 37°57' W 008°52'1 1.3
2014-Sep-12 22:32N 37°56' W 008°51'0 0.3
2014-Sep-12 21:32N 37°56' W 008°51'0 0.0
2014-Sep-12 20:29N 37°56' W 008°51'0 0.0
2014-Sep-12 19:32N 37°56' W 008°51'0 0.0
2014-Sep-12 18:32N 37°56' W 008°51'0 0.0
2014-Sep-12 17:29N 37°56' W 008°51'1 1.5
2014-Sep-12 16:33N 37°55' W 008°51'3 2.9
2014-Sep-12 15:33N 37°57' W 008°53'2 1.9
2014-Sep-12 14:31N 37°56' W 008°51'0 0.0
2014-Sep-11 18:14N 37°56' W 008°51'0 0.3
2014-Sep-11 17:33N 37°56' W 008°51'1 1.4
2014-Sep-11 16:33N 37°55' W 008°52'1 1.3
2014-Sep-11 15:32N 37°56' W 008°51'  
Track history (hours):
 
Tides and Currents Weather Stations Pressure Air Temp Water Temp Dewpoint Dewpoint Depression Visibility Wind Speed Wind Dir Waves Ship Positions

Atlantida Azul

Last reported at 2014-Sep-14 22:15 UTC. Time now 2014-Sep-15 04:01 UTC.
Position N 37°56' W 008°51'.

Length 16 m.

Type: Pilot. MMSI: 263672880.

Date/timePositionNaut miles runAvg speedWind from/ knotsBaromVisibWave heightAir tempDewpointWater temp
2014-Sep-14 22:15N 37°56' W 008°51'0 0.0
2014-Sep-14 17:33N 37°56' W 008°51'1 0.1
2014-Sep-14 05:27N 37°56' W 008°52'1 0.1
2014-Sep-13 18:24N 37°56' W 008°51'0 0.5
2014-Sep-13 17:34N 37°56' W 008°51'0 0.4
2014-Sep-13 16:29N 37°56' W 008°51'0 0.0
2014-Sep-13 15:32N 37°56' W 008°51'1 1.4
2014-Sep-13 14:32N 37°56' W 008°53'2 0.3
2014-Sep-13 08:33N 37°56' W 008°51'2 2.4
2014-Sep-13 07:33N 37°55' W 008°54'2 0.4
2014-Sep-13 02:18N 37°57' W 008°52'1 1.7
2014-Sep-13 01:32N 37°57' W 008°53'1 0.6
2014-Sep-12 23:19N 37°57' W 008°52'1 1.3
2014-Sep-12 22:32N 37°56' W 008°51'0 0.3
2014-Sep-12 21:32N 37°56' W 008°51'0 0.0
2014-Sep-12 20:29N 37°56' W 008°51'0 0.0
2014-Sep-12 19:32N 37°56' W 008°51'0 0.0
2014-Sep-12 18:32N 37°56' W 008°51'0 0.0
2014-Sep-12 17:29N 37°56' W 008°51'1 1.5
2014-Sep-12 16:33N 37°55' W 008°51'3 2.9
2014-Sep-12 15:33N 37°57' W 008°53'2 1.9
2014-Sep-12 14:31N 37°56' W 008°51'0 0.0
2014-Sep-11 18:14N 37°56' W 008°51'0 0.3
2014-Sep-11 17:33N 37°56' W 008°51'1 1.4
2014-Sep-11 16:33N 37°55' W 008°52'1 1.3
2014-Sep-11 15:32N 37°56' W 008°51'  

Dump ship's entire track history